sensor_id;sensor_type;location;lat;lon;timestamp;P1;durP1;ratioP1;P2;durP2;ratioP2
68224;SDS011;57497;43.322;21.932;2023-12-14T00:00:37;69.2;;;43.3;;
68224;SDS011;57497;43.322;21.932;2023-12-14T00:05:36;115.8;;;61.5;;
68224;SDS011;57497;43.322;21.932;2023-12-14T00:10:33;104.8;;;50.5;;
68224;SDS011;57497;43.322;21.932;2023-12-14T00:15:34;127.5;;;53.3;;
68224;SDS011;57497;43.322;21.932;2023-12-14T00:20:33;89.2;;;49.1;;
68224;SDS011;57497;43.322;21.932;2023-12-14T00:25:33;74.2;;;39;;
68224;SDS011;57497;43.322;21.932;2023-12-14T00:30:33;60.4;;;36.8;;
68224;SDS011;57497;43.322;21.932;2023-12-14T00:35:33;87.3;;;48.4;;
68224;SDS011;57497;43.322;21.932;2023-12-14T00:40:33;55.1;;;32.2;;
68224;SDS011;57497;43.322;21.932;2023-12-14T00:45:35;34.5;;;19.6;;
68224;SDS011;57497;43.322;21.932;2023-12-14T00:50:33;83.3;;;42.5;;
68224;SDS011;57497;43.322;21.932;2023-12-14T00:55:33;57.5;;;29.9;;
68224;SDS011;57497;43.322;21.932;2023-12-14T01:00:35;57.9;;;32.3;;
68224;SDS011;57497;43.322;21.932;2023-12-14T01:05:33;36.8;;;15.9;;
68224;SDS011;57497;43.322;21.932;2023-12-14T01:10:33;51.2;;;27.6;;
68224;SDS011;57497;43.322;21.932;2023-12-14T01:15:34;98.7;;;46.1;;
68224;SDS011;57497;43.322;21.932;2023-12-14T01:20:33;101.8;;;46.7;;
68224;SDS011;57497;43.322;21.932;2023-12-14T01:25:33;76;;;39.6;;
68224;SDS011;57497;43.322;21.932;2023-12-14T01:30:33;45.1;;;23.4;;
68224;SDS011;57497;43.322;21.932;2023-12-14T01:35:34;43.9;;;22.7;;
68224;SDS011;57497;43.322;21.932;2023-12-14T01:40:33;42.4;;;25;;
68224;SDS011;57497;43.322;21.932;2023-12-14T01:45:33;43.8;;;23;;
68224;SDS011;57497;43.322;21.932;2023-12-14T01:50:33;23.2;;;15.2;;
68224;SDS011;57497;43.322;21.932;2023-12-14T01:55:34;52.4;;;26.5;;
68224;SDS011;57497;43.322;21.932;2023-12-14T02:00:36;69;;;34;;
68224;SDS011;57497;43.322;21.932;2023-12-14T02:05:33;51.4;;;25.8;;
68224;SDS011;57497;43.322;21.932;2023-12-14T02:10:33;43;;;21.7;;
68224;SDS011;57497;43.322;21.932;2023-12-14T02:15:33;54.1;;;30.3;;
68224;SDS011;57497;43.322;21.932;2023-12-14T02:20:33;52.3;;;26.6;;
68224;SDS011;57497;43.322;21.932;2023-12-14T02:25:33;42.3;;;22.7;;
68224;SDS011;57497;43.322;21.932;2023-12-14T02:30:33;49.6;;;27.3;;
68224;SDS011;57497;43.322;21.932;2023-12-14T02:35:33;42.3;;;26.6;;
68224;SDS011;57497;43.322;21.932;2023-12-14T02:40:33;40.7;;;22.2;;
68224;SDS011;57497;43.322;21.932;2023-12-14T02:45:33;47.7;;;23.5;;
68224;SDS011;57497;43.322;21.932;2023-12-14T02:50:33;49.9;;;26.2;;
68224;SDS011;57497;43.322;21.932;2023-12-14T02:55:34;50.1;;;27.3;;
68224;SDS011;57497;43.322;21.932;2023-12-14T03:00:35;45.7;;;22.8;;
68224;SDS011;57497;43.322;21.932;2023-12-14T03:05:33;34.8;;;22.9;;
68224;SDS011;57497;43.322;21.932;2023-12-14T03:10:33;41.8;;;25;;
68224;SDS011;57497;43.322;21.932;2023-12-14T03:15:33;43.8;;;26.4;;
68224;SDS011;57497;43.322;21.932;2023-12-14T03:20:33;41.3;;;23.1;;
68224;SDS011;57497;43.322;21.932;2023-12-14T03:25:33;45.9;;;23.4;;
68224;SDS011;57497;43.322;21.932;2023-12-14T03:30:34;42;;;20.2;;
68224;SDS011;57497;43.322;21.932;2023-12-14T03:35:33;13.5;;;10.2;;
68224;SDS011;57497;43.322;21.932;2023-12-14T03:40:33;13.3;;;8.1;;
68224;SDS011;57497;43.322;21.932;2023-12-14T03:45:34;15.9;;;8.4;;
68224;SDS011;57497;43.322;21.932;2023-12-14T03:50:33;7.7;;;5.2;;
68224;SDS011;57497;43.322;21.932;2023-12-14T03:55:33;7.7;;;5.3;;
68224;SDS011;57497;43.322;21.932;2023-12-14T04:00:35;7;;;4.8;;
68224;SDS011;57497;43.322;21.932;2023-12-14T04:05:35;14.2;;;9.1;;
68224;SDS011;57497;43.322;21.932;2023-12-14T04:10:34;10.5;;;6.9;;
68224;SDS011;57497;43.322;21.932;2023-12-14T04:15:33;15.4;;;11.7;;
68224;SDS011;57497;43.322;21.932;2023-12-14T04:20:33;17.6;;;8.3;;
68224;SDS011;57497;43.322;21.932;2023-12-14T04:25:33;15;;;9;;
68224;SDS011;57497;43.322;21.932;2023-12-14T04:30:33;9.4;;;7.2;;
68224;SDS011;57497;43.322;21.932;2023-12-14T04:35:33;10.2;;;6.5;;
68224;SDS011;57497;43.322;21.932;2023-12-14T04:40:34;9.9;;;7.3;;
68224;SDS011;57497;43.322;21.932;2023-12-14T04:45:33;9.1;;;5.8;;
68224;SDS011;57497;43.322;21.932;2023-12-14T04:50:33;7.4;;;4.6;;
68224;SDS011;57497;43.322;21.932;2023-12-14T04:55:33;4.4;;;3.4;;
68224;SDS011;57497;43.322;21.932;2023-12-14T05:00:35;9.6;;;4.4;;
68224;SDS011;57497;43.322;21.932;2023-12-14T05:05:33;8.6;;;3.9;;
68224;SDS011;57497;43.322;21.932;2023-12-14T05:10:33;6.5;;;4.1;;
68224;SDS011;57497;43.322;21.932;2023-12-14T05:15:33;11.6;;;3.9;;
68224;SDS011;57497;43.322;21.932;2023-12-14T05:20:33;8.1;;;3.9;;
68224;SDS011;57497;43.322;21.932;2023-12-14T05:25:33;6;;;3;;
68224;SDS011;57497;43.322;21.932;2023-12-14T05:30:34;7.5;;;4.3;;
68224;SDS011;57497;43.322;21.932;2023-12-14T05:35:33;5.7;;;3.5;;
68224;SDS011;57497;43.322;21.932;2023-12-14T05:40:33;5.1;;;2.7;;
68224;SDS011;57497;43.322;21.932;2023-12-14T05:45:33;5.3;;;2.9;;
68224;SDS011;57497;43.322;21.932;2023-12-14T05:50:33;5.5;;;2.7;;
68224;SDS011;57497;43.322;21.932;2023-12-14T05:55:33;4.2;;;2.2;;
68224;SDS011;57497;43.322;21.932;2023-12-14T06:00:35;6;;;3;;
68224;SDS011;57497;43.322;21.932;2023-12-14T06:05:33;6.1;;;3.4;;
68224;SDS011;57497;43.322;21.932;2023-12-14T06:10:33;7.4;;;3.8;;
68224;SDS011;57497;43.322;21.932;2023-12-14T06:15:33;6.8;;;3.1;;
68224;SDS011;57497;43.322;21.932;2023-12-14T06:20:33;10.7;;;3.9;;
68224;SDS011;57497;43.322;21.932;2023-12-14T06:25:33;7.8;;;4.2;;
68224;SDS011;57497;43.322;21.932;2023-12-14T06:30:33;7.7;;;3.4;;
68224;SDS011;57497;43.322;21.932;2023-12-14T06:35:33;4.7;;;4.1;;
68224;SDS011;57497;43.322;21.932;2023-12-14T06:40:33;5;;;3.2;;
68224;SDS011;57497;43.322;21.932;2023-12-14T06:45:36;7.5;;;2.8;;
68224;SDS011;57497;43.322;21.932;2023-12-14T06:50:33;8.4;;;3.6;;
68224;SDS011;57497;43.322;21.932;2023-12-14T06:55:34;3.7;;;2.5;;
68224;SDS011;57497;43.322;21.932;2023-12-14T07:00:35;4.5;;;2.7;;
68224;SDS011;57497;43.322;21.932;2023-12-14T07:05:33;17;;;5.1;;
68224;SDS011;57497;43.322;21.932;2023-12-14T07:10:33;4.4;;;1.9;;
68224;SDS011;57497;43.322;21.932;2023-12-14T07:15:33;3.1;;;1.7;;
68224;SDS011;57497;43.322;21.932;2023-12-14T07:20:33;4.7;;;3.3;;
68224;SDS011;57497;43.322;21.932;2023-12-14T07:25:33;9;;;4.1;;
68224;SDS011;57497;43.322;21.932;2023-12-14T07:30:33;2.4;;;1.6;;
68224;SDS011;57497;43.322;21.932;2023-12-14T07:35:33;2.9;;;2.4;;
68224;SDS011;57497;43.322;21.932;2023-12-14T07:40:34;7.8;;;4.6;;
68224;SDS011;57497;43.322;21.932;2023-12-14T07:45:33;6.3;;;2.8;;
68224;SDS011;57497;43.322;21.932;2023-12-14T07:50:33;10.6;;;5.8;;
68224;SDS011;57497;43.322;21.932;2023-12-14T07:55:33;12.1;;;4.9;;
68224;SDS011;57497;43.322;21.932;2023-12-14T08:00:35;5.6;;;4.3;;
68224;SDS011;57497;43.322;21.932;2023-12-14T08:05:33;4.3;;;2.7;;
68224;SDS011;57497;43.322;21.932;2023-12-14T08:10:33;14;;;7.7;;
68224;SDS011;57497;43.322;21.932;2023-12-14T08:15:33;12.4;;;7.4;;
68224;SDS011;57497;43.322;21.932;2023-12-14T08:20:33;10.8;;;5.8;;
68224;SDS011;57497;43.322;21.932;2023-12-14T08:25:33;6.3;;;4.2;;
68224;SDS011;57497;43.322;21.932;2023-12-14T08:30:33;11.5;;;5.2;;
68224;SDS011;57497;43.322;21.932;2023-12-14T08:35:33;7.8;;;4.6;;
68224;SDS011;57497;43.322;21.932;2023-12-14T08:40:33;8.6;;;4.3;;
68224;SDS011;57497;43.322;21.932;2023-12-14T08:45:33;12.5;;;4.6;;
68224;SDS011;57497;43.322;21.932;2023-12-14T08:50:34;6.3;;;4.3;;
68224;SDS011;57497;43.322;21.932;2023-12-14T08:55:33;10.1;;;5.2;;
68224;SDS011;57497;43.322;21.932;2023-12-14T09:00:34;7.1;;;5.3;;
68224;SDS011;57497;43.322;21.932;2023-12-14T09:05:33;7.2;;;4.3;;
68224;SDS011;57497;43.322;21.932;2023-12-14T09:10:33;7.8;;;4.8;;
68224;SDS011;57497;43.322;21.932;2023-12-14T09:15:34;13.7;;;8.5;;
68224;SDS011;57497;43.322;21.932;2023-12-14T09:20:33;7.2;;;4.9;;
68224;SDS011;57497;43.322;21.932;2023-12-14T09:25:33;9.1;;;5.1;;
68224;SDS011;57497;43.322;21.932;2023-12-14T09:30:33;19.5;;;11.1;;
68224;SDS011;57497;43.322;21.932;2023-12-14T09:35:33;13;;;6.8;;
68224;SDS011;57497;43.322;21.932;2023-12-14T09:40:33;9.3;;;4.3;;
68224;SDS011;57497;43.322;21.932;2023-12-14T09:45:33;11.7;;;6.1;;
68224;SDS011;57497;43.322;21.932;2023-12-14T09:50:33;14.1;;;8;;
68224;SDS011;57497;43.322;21.932;2023-12-14T09:55:33;19.7;;;8.5;;
68224;SDS011;57497;43.322;21.932;2023-12-14T10:00:36;14.9;;;6.9;;
68224;SDS011;57497;43.322;21.932;2023-12-14T10:05:33;10;;;5;;
68224;SDS011;57497;43.322;21.932;2023-12-14T10:10:34;27.8;;;17.9;;
68224;SDS011;57497;43.322;21.932;2023-12-14T10:15:40;44.1;;;24.1;;
68224;SDS011;57497;43.322;21.932;2023-12-14T10:20:34;54.6;;;28.3;;
68224;SDS011;57497;43.322;21.932;2023-12-14T10:25:33;44.1;;;25.5;;
68224;SDS011;57497;43.322;21.932;2023-12-14T10:30:33;21;;;14.4;;
68224;SDS011;57497;43.322;21.932;2023-12-14T10:35:34;37.4;;;23.9;;
68224;SDS011;57497;43.322;21.932;2023-12-14T10:40:33;34.1;;;21.9;;
68224;SDS011;57497;43.322;21.932;2023-12-14T10:45:33;41.3;;;23.9;;
68224;SDS011;57497;43.322;21.932;2023-12-14T10:50:33;47.3;;;25.3;;
68224;SDS011;57497;43.322;21.932;2023-12-14T10:55:36;19.6;;;14.1;;
68224;SDS011;57497;43.322;21.932;2023-12-14T11:00:35;24.8;;;16.3;;
68224;SDS011;57497;43.322;21.932;2023-12-14T11:05:33;32.9;;;16.7;;
68224;SDS011;57497;43.322;21.932;2023-12-14T11:10:36;27;;;13.4;;
68224;SDS011;57497;43.322;21.932;2023-12-14T11:15:34;28.1;;;15.4;;
68224;SDS011;57497;43.322;21.932;2023-12-14T11:20:39;73;;;20;;
68224;SDS011;57497;43.322;21.932;2023-12-14T11:25:33;51.2;;;21.3;;
68224;SDS011;57497;43.322;21.932;2023-12-14T11:30:33;37.9;;;18.7;;
68224;SDS011;57497;43.322;21.932;2023-12-14T11:35:34;20.3;;;10.2;;
68224;SDS011;57497;43.322;21.932;2023-12-14T11:40:33;25.3;;;12.8;;
68224;SDS011;57497;43.322;21.932;2023-12-14T11:45:33;12.6;;;9.9;;
68224;SDS011;57497;43.322;21.932;2023-12-14T11:50:33;6;;;3.9;;
68224;SDS011;57497;43.322;21.932;2023-12-14T11:55:34;19.1;;;9.1;;
68224;SDS011;57497;43.322;21.932;2023-12-14T12:00:35;15.7;;;9.5;;
68224;SDS011;57497;43.322;21.932;2023-12-14T12:05:35;33;;;18;;
68224;SDS011;57497;43.322;21.932;2023-12-14T12:10:33;28;;;15.9;;
68224;SDS011;57497;43.322;21.932;2023-12-14T12:15:33;18.3;;;11.1;;
68224;SDS011;57497;43.322;21.932;2023-12-14T12:20:33;11.9;;;7.9;;
68224;SDS011;57497;43.322;21.932;2023-12-14T12:25:34;14.6;;;9;;
68224;SDS011;57497;43.322;21.932;2023-12-14T12:30:33;8.9;;;3.9;;
68224;SDS011;57497;43.322;21.932;2023-12-14T12:35:33;5.3;;;3.1;;
68224;SDS011;57497;43.322;21.932;2023-12-14T12:40:34;13.8;;;5.3;;
68224;SDS011;57497;43.322;21.932;2023-12-14T12:45:33;17.6;;;9.9;;
68224;SDS011;57497;43.322;21.932;2023-12-14T12:50:33;18.2;;;11.6;;
68224;SDS011;57497;43.322;21.932;2023-12-14T12:55:33;15.8;;;11.2;;
68224;SDS011;57497;43.322;21.932;2023-12-14T13:00:35;15.8;;;10.2;;
68224;SDS011;57497;43.322;21.932;2023-12-14T13:05:33;9.8;;;6.3;;
68224;SDS011;57497;43.322;21.932;2023-12-14T13:10:33;12.7;;;9.1;;
68224;SDS011;57497;43.322;21.932;2023-12-14T13:15:33;15.3;;;11.8;;
68224;SDS011;57497;43.322;21.932;2023-12-14T13:20:34;31.3;;;15.8;;
68224;SDS011;57497;43.322;21.932;2023-12-14T13:25:34;29.1;;;19.8;;
68224;SDS011;57497;43.322;21.932;2023-12-14T13:30:33;24.7;;;16.5;;
68224;SDS011;57497;43.322;21.932;2023-12-14T13:35:33;21.1;;;14.9;;
68224;SDS011;57497;43.322;21.932;2023-12-14T13:40:33;35.6;;;24.5;;
68224;SDS011;57497;43.322;21.932;2023-12-14T13:45:33;43.3;;;28.5;;
68224;SDS011;57497;43.322;21.932;2023-12-14T13:50:33;39.3;;;26.9;;
68224;SDS011;57497;43.322;21.932;2023-12-14T13:55:33;45;;;28.4;;
68224;SDS011;57497;43.322;21.932;2023-12-14T14:00:35;53.4;;;34.5;;
68224;SDS011;57497;43.322;21.932;2023-12-14T14:05:34;33.8;;;22.4;;
68224;SDS011;57497;43.322;21.932;2023-12-14T14:10:33;75.7;;;43.4;;
68224;SDS011;57497;43.322;21.932;2023-12-14T14:15:33;58.4;;;35.3;;
68224;SDS011;57497;43.322;21.932;2023-12-14T14:20:33;53.7;;;33.8;;
68224;SDS011;57497;43.322;21.932;2023-12-14T14:25:34;46.4;;;32.7;;
68224;SDS011;57497;43.322;21.932;2023-12-14T14:30:33;54.8;;;35.3;;
68224;SDS011;57497;43.322;21.932;2023-12-14T14:35:33;67;;;35.9;;
68224;SDS011;57497;43.322;21.932;2023-12-14T14:40:33;49;;;30.5;;
68224;SDS011;57497;43.322;21.932;2023-12-14T14:45:33;44.5;;;31.4;;
68224;SDS011;57497;43.322;21.932;2023-12-14T14:50:33;53.5;;;36.2;;
68224;SDS011;57497;43.322;21.932;2023-12-14T14:55:33;60.9;;;36.6;;
68224;SDS011;57497;43.322;21.932;2023-12-14T15:00:35;85.1;;;48.8;;
68224;SDS011;57497;43.322;21.932;2023-12-14T15:05:33;88.9;;;50.3;;
68224;SDS011;57497;43.322;21.932;2023-12-14T15:10:33;82.6;;;50.7;;
68224;SDS011;57497;43.322;21.932;2023-12-14T15:15:33;119.4;;;54.1;;
68224;SDS011;57497;43.322;21.932;2023-12-14T15:20:33;91.1;;;54.5;;
68224;SDS011;57497;43.322;21.932;2023-12-14T15:25:34;100.3;;;53;;
68224;SDS011;57497;43.322;21.932;2023-12-14T15:30:33;56.6;;;37.8;;
68224;SDS011;57497;43.322;21.932;2023-12-14T15:35:33;88;;;50.4;;
68224;SDS011;57497;43.322;21.932;2023-12-14T15:40:33;69.6;;;43.4;;
68224;SDS011;57497;43.322;21.932;2023-12-14T15:45:34;55.2;;;37.7;;
68224;SDS011;57497;43.322;21.932;2023-12-14T15:50:33;58.5;;;35.4;;
68224;SDS011;57497;43.322;21.932;2023-12-14T15:55:33;60.5;;;38.8;;
68224;SDS011;57497;43.322;21.932;2023-12-14T16:00:35;66.2;;;39.8;;
68224;SDS011;57497;43.322;21.932;2023-12-14T16:05:33;65.9;;;41.3;;
68224;SDS011;57497;43.322;21.932;2023-12-14T16:10:33;73.2;;;49.5;;
68224;SDS011;57497;43.322;21.932;2023-12-14T16:15:33;47.2;;;35.8;;
68224;SDS011;57497;43.322;21.932;2023-12-14T16:20:34;71.3;;;43.9;;
68224;SDS011;57497;43.322;21.932;2023-12-14T16:25:33;93.2;;;53.9;;
68224;SDS011;57497;43.322;21.932;2023-12-14T16:30:33;76.3;;;46.4;;
68224;SDS011;57497;43.322;21.932;2023-12-14T16:35:33;62.5;;;44.1;;
68224;SDS011;57497;43.322;21.932;2023-12-14T16:40:33;58.3;;;39.8;;
68224;SDS011;57497;43.322;21.932;2023-12-14T16:45:33;48;;;30.9;;
68224;SDS011;57497;43.322;21.932;2023-12-14T16:50:33;33.7;;;24.8;;
68224;SDS011;57497;43.322;21.932;2023-12-14T16:55:33;26.5;;;19.8;;
68224;SDS011;57497;43.322;21.932;2023-12-14T17:00:34;29.6;;;18.1;;
68224;SDS011;57497;43.322;21.932;2023-12-14T17:05:33;9.6;;;6.3;;
68224;SDS011;57497;43.322;21.932;2023-12-14T17:10:33;10.7;;;6.5;;
68224;SDS011;57497;43.322;21.932;2023-12-14T17:15:33;7.1;;;5.4;;
68224;SDS011;57497;43.322;21.932;2023-12-14T17:20:34;12.8;;;7.1;;
68224;SDS011;57497;43.322;21.932;2023-12-14T17:25:33;22.3;;;14.5;;
68224;SDS011;57497;43.322;21.932;2023-12-14T17:30:33;31.8;;;17.7;;
68224;SDS011;57497;43.322;21.932;2023-12-14T17:35:33;26.9;;;17.1;;
68224;SDS011;57497;43.322;21.932;2023-12-14T17:40:34;16.6;;;13.5;;
68224;SDS011;57497;43.322;21.932;2023-12-14T17:45:34;22.1;;;15.7;;
68224;SDS011;57497;43.322;21.932;2023-12-14T17:50:33;32.7;;;19.1;;
68224;SDS011;57497;43.322;21.932;2023-12-14T17:55:33;36.4;;;19.7;;
68224;SDS011;57497;43.322;21.932;2023-12-14T18:00:35;35.4;;;19.4;;
68224;SDS011;57497;43.322;21.932;2023-12-14T18:05:33;35.4;;;22.8;;
68224;SDS011;57497;43.322;21.932;2023-12-14T18:10:33;51.7;;;27.6;;
68224;SDS011;57497;43.322;21.932;2023-12-14T18:15:33;62.2;;;40.8;;
68224;SDS011;57497;43.322;21.932;2023-12-14T18:20:34;88.6;;;57.5;;
68224;SDS011;57497;43.322;21.932;2023-12-14T18:25:33;73.7;;;44.1;;
68224;SDS011;57497;43.322;21.932;2023-12-14T18:30:33;49.6;;;36.5;;
68224;SDS011;57497;43.322;21.932;2023-12-14T18:35:33;97.9;;;46.5;;
68224;SDS011;57497;43.322;21.932;2023-12-14T18:40:34;80.2;;;42.8;;
68224;SDS011;57497;43.322;21.932;2023-12-14T18:45:33;138.5;;;59.2;;
68224;SDS011;57497;43.322;21.932;2023-12-14T18:50:33;76.1;;;41.4;;
68224;SDS011;57497;43.322;21.932;2023-12-14T18:55:33;66.9;;;41.6;;
68224;SDS011;57497;43.322;21.932;2023-12-14T19:00:35;88;;;47.2;;
68224;SDS011;57497;43.322;21.932;2023-12-14T19:05:33;80.3;;;45.4;;
68224;SDS011;57497;43.322;21.932;2023-12-14T19:10:34;81.6;;;43.3;;
68224;SDS011;57497;43.322;21.932;2023-12-14T19:15:33;67.3;;;40.7;;
68224;SDS011;57497;43.322;21.932;2023-12-14T19:20:33;94.1;;;52;;
68224;SDS011;57497;43.322;21.932;2023-12-14T19:25:33;75.9;;;53.4;;
68224;SDS011;57497;43.322;21.932;2023-12-14T19:30:33;49.5;;;32.5;;
68224;SDS011;57497;43.322;21.932;2023-12-14T19:35:34;51.6;;;34.2;;
68224;SDS011;57497;43.322;21.932;2023-12-14T19:40:33;45.5;;;30.3;;
68224;SDS011;57497;43.322;21.932;2023-12-14T19:45:33;49.1;;;34.3;;
68224;SDS011;57497;43.322;21.932;2023-12-14T19:50:33;69.8;;;45.5;;
68224;SDS011;57497;43.322;21.932;2023-12-14T19:55:34;47.1;;;35.2;;
68224;SDS011;57497;43.322;21.932;2023-12-14T20:00:35;49.4;;;34;;
68224;SDS011;57497;43.322;21.932;2023-12-14T20:05:34;45;;;32.3;;
68224;SDS011;57497;43.322;21.932;2023-12-14T20:10:34;45;;;32.7;;
68224;SDS011;57497;43.322;21.932;2023-12-14T20:15:33;55.6;;;40.3;;
68224;SDS011;57497;43.322;21.932;2023-12-14T20:20:33;54.5;;;38.2;;
68224;SDS011;57497;43.322;21.932;2023-12-14T20:25:33;57.6;;;36.3;;
68224;SDS011;57497;43.322;21.932;2023-12-14T20:30:33;46.9;;;33.3;;
68224;SDS011;57497;43.322;21.932;2023-12-14T20:35:33;52.2;;;35.6;;
68224;SDS011;57497;43.322;21.932;2023-12-14T20:40:33;63;;;43.1;;
68224;SDS011;57497;43.322;21.932;2023-12-14T20:45:33;71.9;;;45.9;;
68224;SDS011;57497;43.322;21.932;2023-12-14T20:50:33;57.4;;;43.7;;
68224;SDS011;57497;43.322;21.932;2023-12-14T20:55:33;86.7;;;56.2;;
68224;SDS011;57497;43.322;21.932;2023-12-14T21:00:35;87.4;;;56.3;;
68224;SDS011;57497;43.322;21.932;2023-12-14T21:05:34;98.7;;;58.8;;
68224;SDS011;57497;43.322;21.932;2023-12-14T21:10:33;79.5;;;51.1;;
68224;SDS011;57497;43.322;21.932;2023-12-14T21:15:33;65.8;;;41.6;;
68224;SDS011;57497;43.322;21.932;2023-12-14T21:20:33;49.4;;;36.7;;
68224;SDS011;57497;43.322;21.932;2023-12-14T21:25:33;53.7;;;35.7;;
68224;SDS011;57497;43.322;21.932;2023-12-14T21:30:33;42.3;;;30.6;;
68224;SDS011;57497;43.322;21.932;2023-12-14T21:35:33;68.7;;;41.5;;
68224;SDS011;57497;43.322;21.932;2023-12-14T21:40:33;52.5;;;37;;
68224;SDS011;57497;43.322;21.932;2023-12-14T21:45:33;51.6;;;32.4;;
68224;SDS011;57497;43.322;21.932;2023-12-14T21:50:33;43.6;;;26.4;;
68224;SDS011;57497;43.322;21.932;2023-12-14T21:55:33;29.4;;;18;;
68224;SDS011;57497;43.322;21.932;2023-12-14T22:00:35;32;;;22.5;;
68224;SDS011;57497;43.322;21.932;2023-12-14T22:05:33;30.4;;;21.9;;
68224;SDS011;57497;43.322;21.932;2023-12-14T22:10:33;32.1;;;25.7;;
68224;SDS011;57497;43.322;21.932;2023-12-14T22:15:33;45.2;;;29.3;;
68224;SDS011;57497;43.322;21.932;2023-12-14T22:20:35;50.3;;;35;;
68224;SDS011;57497;43.322;21.932;2023-12-14T22:25:33;41.9;;;28.4;;
68224;SDS011;57497;43.322;21.932;2023-12-14T22:30:33;47.4;;;31.5;;
68224;SDS011;57497;43.322;21.932;2023-12-14T22:35:33;53;;;27.5;;
68224;SDS011;57497;43.322;21.932;2023-12-14T22:40:33;45.9;;;31;;
68224;SDS011;57497;43.322;21.932;2023-12-14T22:45:33;57.1;;;35.4;;
68224;SDS011;57497;43.322;21.932;2023-12-14T22:50:33;31.5;;;23.2;;
68224;SDS011;57497;43.322;21.932;2023-12-14T22:55:33;36.2;;;23.8;;
68224;SDS011;57497;43.322;21.932;2023-12-14T23:00:35;40.5;;;24.7;;
68224;SDS011;57497;43.322;21.932;2023-12-14T23:05:33;36.5;;;24.2;;
68224;SDS011;57497;43.322;21.932;2023-12-14T23:10:33;43.6;;;27.5;;
68224;SDS011;57497;43.322;21.932;2023-12-14T23:15:33;43.6;;;29.1;;
68224;SDS011;57497;43.322;21.932;2023-12-14T23:20:34;46.1;;;29.9;;
68224;SDS011;57497;43.322;21.932;2023-12-14T23:25:33;42.2;;;30;;
68224;SDS011;57497;43.322;21.932;2023-12-14T23:30:34;38.9;;;26.8;;
68224;SDS011;57497;43.322;21.932;2023-12-14T23:35:33;29.6;;;21.6;;
68224;SDS011;57497;43.322;21.932;2023-12-14T23:40:33;33.9;;;24.8;;
68224;SDS011;57497;43.322;21.932;2023-12-14T23:45:33;32.1;;;22.6;;
68224;SDS011;57497;43.322;21.932;2023-12-14T23:50:34;24.2;;;15;;
68224;SDS011;57497;43.322;21.932;2023-12-14T23:55:33;39.7;;;23.3;;
